Time;durP1;ratioP1;P1;durP2;ratioP2;P2;SDS_P1;SDS_P2;PMS_P1;PMS_P2;Temp;Humidity;BMP_temperature;BMP_pressure;BME280_temperature;BME280_humidity;BME280_pressure;Samples;Min_cycle;Max_cycle;Signal;HPM_P1;HPM_P2
2022/10/01 00:01:12;;;;;;;1.50;0.87;;;10.00;99.90;;;;;;5036611;28;20494;-74
2022/10/01 00:03:39;;;;;;;1.30;0.90;;;9.90;99.90;;;;;;5038677;28;20536;-74
2022/10/01 00:06:09;;;;;;;1.80;0.90;;;9.90;99.90;;;;;;5036477;28;20746;-74
2022/10/01 00:08:37;;;;;;;1.20;0.73;;;10.00;99.90;;;;;;5039351;28;20895;-74
2022/10/01 00:11:08;;;;;;;1.40;0.80;;;10.00;99.90;;;;;;5037147;28;20959;-74
2022/10/01 00:13:35;;;;;;;2.30;0.90;;;10.00;99.90;;;;;;5038875;28;20886;-74
2022/10/01 00:16:06;;;;;;;1.37;0.90;;;10.00;99.90;;;;;;5035615;28;20456;-74
2022/10/01 00:18:37;;;;;;;1.17;0.93;;;10.00;99.90;;;;;;5039004;28;20467;-74
2022/10/01 00:21:08;;;;;;;1.73;1.00;;;10.00;99.90;;;;;;5036535;28;20583;-74
2022/10/01 00:23:36;;;;;;;1.27;0.90;;;9.90;99.90;;;;;;5038675;28;20453;-74
2022/10/01 00:26:12;;;;;;;1.10;0.80;;;9.90;99.90;;;;;;5036410;28;20554;-74
2022/10/01 00:28:39;;;;;;;1.93;0.83;;;9.80;99.90;;;;;;5038946;28;20448;-74
2022/10/01 00:31:07;;;;;;;1.13;0.80;;;9.70;99.90;;;;;;5035782;28;20456;-74
2022/10/01 00:33:35;;;;;;;1.10;0.80;;;9.70;99.90;;;;;;5038744;28;20454;-74
2022/10/01 00:36:04;;;;;;;1.10;0.83;;;9.70;99.90;;;;;;5039616;28;20464;-74
2022/10/01 00:38:31;;;;;;;2.10;0.90;;;9.70;99.90;;;;;;5039595;28;20467;-74
2022/10/01 00:40:58;;;;;;;1.53;0.90;;;9.70;99.90;;;;;;5035227;28;20490;-74
2022/10/01 00:43:27;;;;;;;1.43;0.90;;;9.80;99.90;;;;;;5038789;28;20563;-74
2022/10/01 00:45:58;;;;;;;1.23;0.83;;;9.70;99.90;;;;;;5038876;28;20456;-74
2022/10/01 00:48:28;;;;;;;1.07;0.90;;;9.70;99.90;;;;;;5035753;28;20926;-74
2022/10/01 00:50:58;;;;;;;0.97;0.63;;;9.70;99.90;;;;;;5039185;28;20437;-74
2022/10/01 00:53:25;;;;;;;1.30;0.80;;;9.80;99.90;;;;;;5035411;28;20549;-74
2022/10/01 00:55:55;;;;;;;2.40;1.00;;;9.80;99.90;;;;;;5038574;28;20506;-74
2022/10/01 00:58:24;;;;;;;1.77;0.80;;;9.90;99.90;;;;;;5035255;28;20460;-73
2022/10/01 01:00:53;;;;;;;2.10;0.70;;;10.00;99.90;;;;;;5037241;28;20491;-74
2022/10/01 01:03:20;;;;;;;1.57;0.80;;;10.00;99.90;;;;;;5034788;28;20556;-74
2022/10/01 01:05:49;;;;;;;1.40;0.90;;;9.90;99.90;;;;;;5036746;28;20448;-74
2022/10/01 01:08:18;;;;;;;1.83;0.83;;;9.90;99.90;;;;;;5035087;28;20500;-74
2022/10/01 01:10:55;;;;;;;1.50;0.80;;;9.90;99.90;;;;;;5037671;28;20507;-74
2022/10/01 01:13:32;;;;;;;2.70;0.80;;;9.90;99.90;;;;;;5035274;28;20462;-74
2022/10/01 01:16:05;;;;;;;1.30;0.80;;;9.90;99.90;;;;;;5037214;28;20456;-74
2022/10/01 01:18:39;;;;;;;1.00;0.67;;;9.80;99.90;;;;;;5034099;28;20460;-74
2022/10/01 01:21:25;;;;;;;1.30;0.80;;;9.80;99.90;;;;;;5036474;28;20483;-74
2022/10/01 01:24:19;;;;;;;1.90;0.73;;;9.80;99.90;;;;;;5036853;28;20540;-74
2022/10/01 01:26:58;;;;;;;1.23;0.80;;;9.80;99.90;;;;;;5033856;28;20813;-74
2022/10/01 01:29:32;;;;;;;1.43;0.70;;;9.80;99.90;;;;;;5037276;28;20539;-74
2022/10/01 01:32:07;;;;;;;1.10;0.70;;;9.70;99.90;;;;;;5035768;28;20452;-74
2022/10/01 01:34:35;;;;;;;4.67;0.70;;;9.70;99.90;;;;;;5037895;28;20474;-74
2022/10/01 01:37:10;;;;;;;1.17;0.80;;;9.60;99.90;;;;;;5034186;28;20478;-73
2022/10/01 01:39:40;;;;;;;1.27;0.80;;;9.70;99.90;;;;;;5037752;28;20521;-74
2022/10/01 01:42:11;;;;;;;1.30;0.70;;;9.60;99.90;;;;;;5034371;28;20575;-74
2022/10/01 01:44:44;;;;;;;0.90;0.60;;;9.60;99.90;;;;;;5038555;28;20467;-75
2022/10/01 01:47:17;;;;;;;1.70;0.70;;;9.70;99.90;;;;;;5034502;28;20538;-74
2022/10/01 01:49:45;;;;;;;1.83;0.70;;;9.80;99.90;;;;;;5037767;28;20544;-73
2022/10/01 01:52:14;;;;;;;1.20;0.60;;;9.80;99.90;;;;;;5035069;28;20462;-75
2022/10/01 01:54:43;;;;;;;0.83;0.67;;;9.70;99.90;;;;;;5038046;28;20583;-74
2022/10/01 01:57:11;;;;;;;1.07;0.60;;;9.80;99.90;;;;;;5035321;28;20744;-74
2022/10/01 01:59:41;;;;;;;0.97;0.57;;;9.80;99.90;;;;;;5037075;28;20510;-74
2022/10/01 02:02:10;;;;;;;0.90;0.50;;;9.80;99.90;;;;;;5032960;28;20894;-74
2022/10/01 02:04:43;;;;;;;0.90;0.60;;;9.90;99.90;;;;;;5036795;28;20952;-74
2022/10/01 02:07:26;;;;;;;1.40;0.60;;;9.90;99.90;;;;;;5030269;28;20470;-74
2022/10/01 02:10:04;;;;;;;1.03;0.63;;;10.00;99.90;;;;;;5036102;28;20818;-74
2022/10/01 02:12:47;;;;;;;1.27;0.60;;;10.00;99.90;;;;;;5033889;28;20454;-74
2022/10/01 02:15:22;;;;;;;0.97;0.70;;;9.90;99.90;;;;;;5036437;28;20538;-75
2022/10/01 02:17:57;;;;;;;1.00;0.60;;;9.90;99.90;;;;;;5034573;28;20553;-74
2022/10/01 02:20:30;;;;;;;0.70;0.50;;;10.00;99.90;;;;;;5037118;28;20451;-75
2022/10/01 02:23:00;;;;;;;5.30;0.60;;;10.00;99.90;;;;;;5034107;28;20741;-74
2022/10/01 02:25:33;;;;;;;0.93;0.70;;;10.00;99.90;;;;;;5035535;28;20454;-74
2022/10/01 02:28:05;;;;;;;0.80;0.50;;;10.10;99.90;;;;;;5032642;28;20546;-74
2022/10/01 02:30:35;;;;;;;3.27;0.80;;;10.00;99.90;;;;;;5035550;28;20452;-73
2022/10/01 02:33:03;;;;;;;2.30;0.60;;;10.10;99.90;;;;;;5032165;28;20461;-73
2022/10/01 02:35:32;;;;;;;0.90;0.60;;;10.10;99.90;;;;;;5035925;28;20448;-73
2022/10/01 02:38:02;;;;;;;2.70;0.60;;;10.20;99.90;;;;;;5033866;28;20462;-74
2022/10/01 02:40:33;;;;;;;1.10;0.60;;;10.10;99.90;;;;;;5036490;28;20492;-73
2022/10/01 02:43:03;;;;;;;0.97;0.60;;;10.10;99.90;;;;;;5034860;28;20591;-74
2022/10/01 02:45:36;;;;;;;4.93;0.60;;;10.20;99.90;;;;;;5036707;28;20449;-74
2022/10/01 02:48:06;;;;;;;0.87;0.50;;;10.20;99.90;;;;;;5033886;28;20555;-74
2022/10/01 02:50:40;;;;;;;0.90;0.60;;;10.20;99.90;;;;;;5037002;28;20439;-74
2022/10/01 02:53:10;;;;;;;0.80;0.50;;;10.20;99.90;;;;;;5033498;28;20461;-73
2022/10/01 02:55:40;;;;;;;0.70;0.50;;;10.10;99.90;;;;;;5037007;28;20562;-74
2022/10/01 02:58:07;;;;;;;1.10;0.60;;;10.10;99.40;;;;;;5033837;28;20466;-73
2022/10/01 03:00:35;;;;;;;1.00;0.60;;;10.20;99.90;;;;;;5036731;28;20502;-73
2022/10/01 03:03:02;;;;;;;0.90;0.60;;;10.10;99.90;;;;;;5033346;28;20519;-73
2022/10/01 03:05:28;;;;;;;0.90;0.50;;;10.20;99.90;;;;;;5036928;28;20455;-73
2022/10/01 03:07:55;;;;;;;1.03;0.57;;;10.10;99.00;;;;;;5033682;28;20567;-73
2022/10/01 03:10:22;;;;;;;1.77;0.60;;;10.10;99.90;;;;;;5036457;28;20454;-74
2022/10/01 03:12:49;;;;;;;2.30;0.50;;;10.10;99.90;;;;;;5033092;28;20788;-74
2022/10/01 03:15:19;;;;;;;0.80;0.60;;;10.10;96.90;;;;;;5036781;28;20437;-74
2022/10/01 03:17:51;;;;;;;0.90;0.50;;;10.00;98.60;;;;;;5037360;28;20474;-73
2022/10/01 03:20:18;;;;;;;0.77;0.50;;;10.00;99.90;;;;;;5040143;28;20483;-73
2022/10/01 03:22:45;;;;;;;2.60;0.60;;;9.90;99.90;;;;;;5035617;28;20936;-74
2022/10/01 03:25:12;;;;;;;0.90;0.60;;;9.90;99.90;;;;;;5038751;28;20486;-73
2022/10/01 03:27:39;;;;;;;3.00;0.57;;;9.90;99.90;;;;;;5037645;28;20452;-73
2022/10/01 03:30:07;;;;;;;1.30;0.60;;;9.90;99.90;;;;;;5040083;28;20543;-73
2022/10/01 03:32:34;;;;;;;0.77;0.50;;;9.90;99.90;;;;;;5038663;28;20456;-74
2022/10/01 03:35:02;;;;;;;1.00;0.60;;;9.90;99.90;;;;;;5036748;28;20546;-73
2022/10/01 03:37:29;;;;;;;1.27;0.50;;;9.90;99.90;;;;;;5038573;28;20524;-73
2022/10/01 03:39:56;;;;;;;0.73;0.40;;;9.90;99.90;;;;;;5038480;28;20750;-73
2022/10/01 03:42:23;;;;;;;1.00;0.60;;;9.90;99.50;;;;;;5035804;28;20520;-73
2022/10/01 03:44:49;;;;;;;1.27;0.40;;;9.90;99.00;;;;;;5038307;28;20543;-73
2022/10/01 03:47:16;;;;;;;0.90;0.50;;;9.90;99.90;;;;;;5036017;28;20466;-73
2022/10/01 03:49:43;;;;;;;0.90;0.67;;;9.90;99.90;;;;;;5039474;28;20950;-73
2022/10/01 03:52:11;;;;;;;1.00;0.60;;;10.00;99.10;;;;;;5037116;28;20467;-73
2022/10/01 03:54:38;;;;;;;0.80;0.50;;;10.00;96.20;;;;;;5039225;28;20872;-73
2022/10/01 03:57:05;;;;;;;0.70;0.60;;;10.00;93.50;;;;;;5035880;28;20550;-73
2022/10/01 03:59:32;;;;;;;1.80;0.50;;;9.90;98.00;;;;;;5039305;28;20460;-73
2022/10/01 04:01:59;;;;;;;0.70;0.47;;;9.90;98.80;;;;;;5035215;28;20923;-73
2022/10/01 04:04:27;;;;;;;0.90;0.53;;;9.90;94.20;;;;;;5039041;28;20447;-74
2022/10/01 04:06:54;;;;;;;0.73;0.50;;;9.90;96.80;;;;;;5036315;28;20471;-72
2022/10/01 04:09:22;;;;;;;2.37;0.50;;;9.90;97.80;;;;;;5039351;28;20928;-73
2022/10/01 04:11:51;;;;;;;0.70;0.50;;;9.90;95.20;;;;;;5036204;28;20456;-74
2022/10/01 04:14:18;;;;;;;0.70;0.43;;;9.90;92.60;;;;;;5038929;28;20482;-73
2022/10/01 04:16:45;;;;;;;0.63;0.40;;;9.90;91.00;;;;;;5036524;28;20531;-74
2022/10/01 04:19:12;;;;;;;0.70;0.40;;;9.90;89.50;;;;;;5039170;28;20452;-73
2022/10/01 04:21:38;;;;;;;4.53;0.57;;;9.90;84.80;;;;;;5037503;28;20549;-74
2022/10/01 04:24:06;;;;;;;1.00;0.50;;;9.90;82.60;;;;;;5037049;28;20460;-73
2022/10/01 04:26:34;;;;;;;0.73;0.37;;;10.00;80.90;;;;;;5033908;28;20965;-73
2022/10/01 04:29:01;;;;;;;0.87;0.40;;;10.00;72.60;;;;;;5036307;28;20775;-73
2022/10/01 04:31:33;;;;;;;0.50;0.30;;;10.10;76.60;;;;;;5032990;28;20824;-74
2022/10/01 04:34:00;;;;;;;1.40;0.37;;;10.10;70.00;;;;;;5036582;28;20840;-73
2022/10/01 04:36:27;;;;;;;0.70;0.40;;;10.10;63.10;;;;;;5034644;28;20462;-74
2022/10/01 04:38:54;;;;;;;0.80;0.40;;;10.10;67.80;;;;;;5039423;28;20452;-73
2022/10/01 04:41:21;;;;;;;0.70;0.50;;;10.10;63.40;;;;;;5036517;28;20462;-73
2022/10/01 04:43:49;;;;;;;0.50;0.30;;;10.10;68.00;;;;;;5038820;28;20504;-74
2022/10/01 04:46:16;;;;;;;0.60;0.50;;;10.10;60.50;;;;;;5036218;28;20616;-73
2022/10/01 04:48:43;;;;;;;0.70;0.47;;;10.00;59.00;;;;;;5037697;28;20451;-73
2022/10/01 04:51:13;;;;;;;0.50;0.40;;;10.10;60.80;;;;;;5033976;28;20487;-73
2022/10/01 04:53:40;;;;;;;0.63;0.40;;;10.10;99.90;;;;;;5038606;28;20451;-73
2022/10/01 04:56:07;;;;;;;0.50;0.30;;;10.10;99.90;;;;;;5036476;28;20457;-73
2022/10/01 04:58:34;;;;;;;0.80;0.40;;;10.10;61.00;;;;;;5038342;28;20449;-75
2022/10/01 05:01:02;;;;;;;0.57;0.30;;;10.10;55.30;;;;;;5035424;28;20457;-74
2022/10/01 05:03:30;;;;;;;0.70;0.50;;;10.10;50.20;;;;;;5038554;28;20558;-73
2022/10/01 05:05:57;;;;;;;0.60;0.40;;;10.10;44.10;;;;;;5036258;28;20479;-74
2022/10/01 05:08:24;;;;;;;0.60;0.43;;;10.20;48.50;;;;;;5037902;28;20448;-73
2022/10/01 05:10:51;;;;;;;0.50;0.37;;;10.20;42.80;;;;;;5036623;28;20463;-74
2022/10/01 05:13:18;;;;;;;0.60;0.50;;;10.30;40.40;;;;;;5037248;28;20451;-73
2022/10/01 05:15:47;;;;;;;0.70;0.40;;;10.30;24.80;;;;;;5034466;28;20546;-73
2022/10/01 05:18:17;;;;;;;1.30;0.30;;;10.30;28.30;;;;;;5037775;28;20443;-75
2022/10/01 05:20:44;;;;;;;0.60;0.40;;;10.50;22.70;;;;;;5035232;28;20463;-73
2022/10/01 05:23:11;;;;;;;0.50;0.30;;;10.50;14.30;;;;;;5037517;28;20578;-75
2022/10/01 05:25:38;;;;;;;0.60;0.30;;;10.50;7.20;;;;;;5035083;28;20478;-75
2022/10/01 05:28:05;;;;;;;0.80;0.50;;;10.50;1.00;;;;;;5036575;28;20547;-75
2022/10/01 05:30:32;;;;;;;0.70;0.40;;;10.40;6.80;;;;;;5034157;28;20948;-75
2022/10/01 05:33:01;;;;;;;0.43;0.30;;;10.40;9.20;;;;;;5037803;28;20440;-75
2022/10/01 05:35:29;;;;;;;0.60;0.30;;;10.40;11.60;;;;;;5033967;28;20462;-75
2022/10/01 05:37:57;;;;;;;2.00;0.40;;;10.50;15.30;;;;;;5034602;28;20448;-74
2022/10/01 05:40:26;;;;;;;1.27;0.40;;;10.50;1.00;;;;;;5033196;28;20746;-76
2022/10/01 05:42:53;;;;;;;0.50;0.30;;;10.50;4.50;;;;;;5034979;28;20907;-76
2022/10/01 05:45:21;;;;;;;0.70;0.40;;;10.50;1.00;;;;;;5032419;28;20527;-76
2022/10/01 05:47:49;;;;;;;0.97;0.37;;;10.60;1.00;;;;;;5035631;28;20452;-76
2022/10/01 05:50:16;;;;;;;0.50;0.30;;;10.60;1.00;;;;;;5031898;28;20428;-76
2022/10/01 05:52:53;;;;;;;0.40;0.20;;;10.60;1.00;;;;;;5036494;28;20459;-76
2022/10/01 05:55:20;;;;;;;0.50;0.30;;;10.60;1.00;;;;;;5034793;28;20554;-77
2022/10/01 05:57:54;;;;;;;0.50;0.30;;;10.60;1.00;;;;;;5036562;28;20443;-78
2022/10/01 06:00:21;;;;;;;0.50;0.30;;;10.70;1.00;;;;;;5032193;28;20456;-77
2022/10/01 06:02:51;;;;;;;0.40;0.30;;;10.70;1.00;;;;;;5038344;28;20488;-77
2022/10/01 06:05:18;;;;;;;0.57;0.33;;;10.70;1.00;;;;;;5035364;28;20454;-77
2022/10/01 06:07:45;;;;;;;0.60;0.30;;;10.70;1.00;;;;;;5038406;28;20527;-78
2022/10/01 06:10:16;;;;;;;0.40;0.20;;;10.70;6.10;;;;;;5037501;28;20537;-78
2022/10/01 06:12:43;;;;;;;0.60;0.30;;;10.60;20.40;;;;;;5039107;28;20443;-78
2022/10/01 06:15:11;;;;;;;1.00;0.40;;;10.60;44.70;;;;;;5041694;28;20539;-77
2022/10/01 06:17:43;;;;;;;0.63;0.33;;;10.60;26.90;;;;;;5048173;28;20558;-79
2022/10/01 06:20:12;;;;;;;0.60;0.40;;;10.50;55.00;;;;;;5048181;28;20440;-79
2022/10/01 06:22:41;;;;;;;0.60;0.30;;;10.40;54.80;;;;;;5048168;28;20480;-79
2022/10/01 06:25:10;;;;;;;1.57;0.40;;;10.40;67.00;;;;;;5047426;28;20463;-80
2022/10/01 06:27:39;;;;;;;0.67;0.30;;;10.40;70.00;;;;;;5039915;28;20479;-80
2022/10/01 06:30:07;;;;;;;0.60;0.40;;;10.40;81.50;;;;;;5043108;28;20454;-77
2022/10/01 06:32:34;;;;;;;0.60;0.30;;;10.50;71.10;;;;;;5037222;28;20935;-78
2022/10/01 06:35:00;;;;;;;0.50;0.30;;;10.40;70.30;;;;;;5037677;28;20452;-78
2022/10/01 06:37:27;;;;;;;0.60;0.40;;;10.40;72.00;;;;;;5038219;28;20821;-76
2022/10/01 06:39:54;;;;;;;0.60;0.30;;;10.40;77.30;;;;;;5042515;28;20446;-78
2022/10/01 06:42:21;;;;;;;0.63;0.40;;;10.40;94.10;;;;;;5033055;28;20490;-79
2022/10/01 06:44:49;;;;;;;0.57;0.30;;;10.40;94.10;;;;;;5035972;28;20527;-79
2022/10/01 06:47:16;;;;;;;0.50;0.30;;;10.40;99.90;;;;;;5033454;28;20460;-77
2022/10/01 06:49:43;;;;;;;0.67;0.40;;;10.50;94.90;;;;;;5038302;28;20452;-78
2022/10/01 06:54:54;;;;;;;0.60;0.30;;;10.40;90.20;;;;;;5041343;28;20427;-78
2022/10/01 06:57:21;;;;;;;0.90;0.40;;;10.50;98.10;;;;;;5036907;28;20542;-77
2022/10/01 06:59:49;;;;;;;0.40;0.30;;;10.50;99.50;;;;;;5040864;28;20476;-78
2022/10/01 07:02:22;;;;;;;1.00;0.40;;;10.60;95.50;;;;;;5037989;28;20480;-78
2022/10/01 07:04:49;;;;;;;0.67;0.37;;;10.50;99.90;;;;;;5040777;28;20448;-78
2022/10/01 07:07:16;;;;;;;0.50;0.30;;;10.50;98.90;;;;;;5036843;28;20825;-77
2022/10/01 07:09:43;;;;;;;0.70;0.30;;;10.40;99.90;;;;;;5039956;28;20888;-77
2022/10/01 07:12:10;;;;;;;0.87;0.40;;;10.40;99.90;;;;;;5040435;28;20452;-77
2022/10/01 07:14:37;;;;;;;0.70;0.40;;;10.40;99.90;;;;;;5036935;28;20444;-77
2022/10/01 07:17:05;;;;;;;0.80;0.30;;;10.40;99.90;;;;;;5039857;28;20448;-77
2022/10/01 07:19:32;;;;;;;0.70;0.30;;;10.50;99.90;;;;;;5037394;28;20488;-77
2022/10/01 07:21:59;;;;;;;0.47;0.30;;;10.50;99.90;;;;;;5040721;28;20484;-77
2022/10/01 07:24:25;;;;;;;0.80;0.40;;;10.50;99.90;;;;;;5038015;28;20343;-77
2022/10/01 07:26:54;;;;;;;0.47;0.37;;;10.50;99.90;;;;;;5039877;28;20539;-77
2022/10/01 07:29:22;;;;;;;0.50;0.37;;;10.40;99.90;;;;;;5037071;28;20902;-76
2022/10/01 07:31:49;;;;;;;0.40;0.30;;;10.50;99.90;;;;;;5039966;28;20510;-77
2022/10/01 07:34:21;;;;;;;0.53;0.40;;;10.40;99.90;;;;;;5038751;28;20479;-77
2022/10/01 07:36:49;;;;;;;0.70;0.40;;;10.40;99.90;;;;;;5040129;28;20420;-77
2022/10/01 07:39:16;;;;;;;0.67;0.43;;;10.50;99.90;;;;;;5040809;28;20495;-77
2022/10/01 07:41:43;;;;;;;0.80;0.37;;;10.40;99.90;;;;;;5042223;28;20429;-77
2022/10/01 07:44:11;;;;;;;0.60;0.40;;;10.40;99.90;;;;;;5035390;28;20498;-76
2022/10/01 07:46:38;;;;;;;0.70;0.40;;;10.40;99.90;;;;;;5039868;28;20455;-77
2022/10/01 07:49:05;;;;;;;1.23;0.40;;;10.40;99.90;;;;;;5041379;28;20495;-77
2022/10/01 07:51:35;;;;;;;0.60;0.40;;;10.50;99.90;;;;;;5046985;28;20504;-77
2022/10/01 07:54:02;;;;;;;1.70;0.40;;;10.60;99.90;;;;;;5036328;28;20453;-78
2022/10/01 07:56:29;;;;;;;0.60;0.40;;;10.60;99.90;;;;;;5038131;28;20530;-77
2022/10/01 07:58:56;;;;;;;0.50;0.30;;;10.60;99.90;;;;;;5036869;28;20771;-77
2022/10/01 08:01:23;;;;;;;0.50;0.30;;;10.60;99.90;;;;;;5038853;28;20448;-76
2022/10/01 08:03:50;;;;;;;0.53;0.40;;;10.70;99.90;;;;;;5035089;28;20491;-76
2022/10/01 08:06:18;;;;;;;0.50;0.40;;;10.70;99.90;;;;;;5038579;28;20448;-76
2022/10/01 08:08:46;;;;;;;0.70;0.30;;;10.60;99.90;;;;;;5035943;28;20823;-77
2022/10/01 08:11:16;;;;;;;0.60;0.30;;;10.60;99.90;;;;;;5036557;28;20463;-76
2022/10/01 08:13:44;;;;;;;0.70;0.30;;;10.70;99.90;;;;;;5032337;28;20628;-76
2022/10/01 08:16:11;;;;;;;0.60;0.30;;;10.70;99.90;;;;;;5037908;28;21122;-77
2022/10/01 08:18:40;;;;;;;0.40;0.40;;;10.60;99.90;;;;;;5035109;28;20582;-77
2022/10/01 08:21:07;;;;;;;0.60;0.40;;;10.70;99.90;;;;;;5037730;28;20456;-76
2022/10/01 08:23:35;;;;;;;1.47;0.40;;;10.70;99.90;;;;;;5034650;28;20483;-77
2022/10/01 08:26:05;;;;;;;0.60;0.30;;;10.60;99.90;;;;;;5037623;28;20809;-76
2022/10/01 08:28:33;;;;;;;0.70;0.30;;;10.60;99.90;;;;;;5047587;28;20457;-75
2022/10/01 08:31:07;;;;;;;0.40;0.23;;;10.60;99.90;;;;;;5058465;28;20446;-76
2022/10/01 08:33:35;;;;;;;0.70;0.30;;;10.60;99.90;;;;;;5054672;28;20493;-76
2022/10/01 08:36:02;;;;;;;0.40;0.30;;;10.80;99.90;;;;;;5056941;28;20812;-76
2022/10/01 08:38:29;;;;;;;0.50;0.30;;;10.80;99.90;;;;;;5053899;28;20972;-76
2022/10/01 08:41:00;;;;;;;0.50;0.30;;;10.80;99.90;;;;;;5056792;28;20457;-76
2022/10/01 08:43:32;;;;;;;0.50;0.30;;;10.90;99.90;;;;;;5053929;28;20773;-76
2022/10/01 08:46:02;;;;;;;0.80;0.60;;;10.80;99.90;;;;;;5057175;28;20453;-77
2022/10/01 08:48:42;;;;;;;0.40;0.30;;;10.90;99.90;;;;;;5057825;28;20459;-77
2022/10/01 08:51:15;;;;;;;0.60;0.30;;;10.80;99.90;;;;;;5052268;28;20447;-78
2022/10/01 08:53:47;;;;;;;0.60;0.30;;;10.90;99.90;;;;;;5055564;28;20533;-76
2022/10/01 08:56:21;;;;;;;0.77;0.30;;;10.80;99.90;;;;;;5056703;28;20439;-76
2022/10/01 08:58:57;;;;;;;0.40;0.30;;;11.00;99.90;;;;;;5055760;28;20447;-75
2022/10/01 09:01:24;;;;;;;0.60;0.40;;;10.80;99.90;;;;;;5055836;28;20887;-75
2022/10/01 09:03:52;;;;;;;0.77;0.50;;;11.00;99.90;;;;;;5056265;28;20478;-76
2022/10/01 09:06:24;;;;;;;0.77;0.30;;;11.10;99.90;;;;;;5055786;28;20875;-76
2022/10/01 09:09:07;;;;;;;0.87;0.40;;;11.10;99.90;;;;;;5055115;28;21117;-76
2022/10/01 09:11:53;;;;;;;0.60;0.30;;;11.20;99.90;;;;;;5056433;28;20776;-76
2022/10/01 09:14:36;;;;;;;0.60;0.40;;;11.20;99.90;;;;;;5054493;28;20541;-76
2022/10/01 09:17:12;;;;;;;0.53;0.40;;;11.20;99.90;;;;;;5056720;28;20443;-76
2022/10/01 09:19:55;;;;;;;0.80;0.30;;;11.20;99.90;;;;;;5057188;28;20542;-76
2022/10/01 09:22:34;;;;;;;0.50;0.30;;;11.30;99.90;;;;;;5055314;28;20533;-76
2022/10/01 09:25:11;;;;;;;0.63;0.30;;;11.30;99.90;;;;;;5052327;28;20546;-76
2022/10/01 09:27:38;;;;;;;0.90;0.40;;;11.50;99.90;;;;;;5054855;28;20447;-75
2022/10/01 09:30:13;;;;;;;0.97;0.40;;;11.60;99.90;;;;;;5050869;28;20455;-76
2022/10/01 09:32:45;;;;;;;1.37;0.70;;;11.60;99.90;;;;;;5050117;28;20545;-77
2022/10/01 09:35:24;;;;;;;0.70;0.30;;;11.70;99.90;;;;;;5052706;28;20454;-76
2022/10/01 09:37:57;;;;;;;0.60;0.40;;;11.90;99.90;;;;;;5052934;28;20960;-76
2022/10/01 09:40:32;;;;;;;2.00;0.37;;;11.90;99.90;;;;;;5049977;28;20442;-76
2022/10/01 09:43:00;;;;;;;1.00;0.50;;;11.80;99.90;;;;;;5053361;28;20466;-76
2022/10/01 09:45:29;;;;;;;0.30;0.10;;;11.80;99.90;;;;;;5049161;28;20997;-76
2022/10/01 09:48:03;;;;;;;0.57;0.30;;;11.80;99.90;;;;;;5036201;28;20447;-75
2022/10/01 09:50:38;;;;;;;3.00;0.40;;;11.90;99.90;;;;;;5053487;28;20475;-74
2022/10/01 09:53:10;;;;;;;0.80;0.30;;;11.90;99.90;;;;;;5067879;28;20834;-75
2022/10/01 09:55:40;;;;;;;0.40;0.20;;;11.90;99.90;;;;;;5054806;28;20455;-77
2022/10/01 09:58:10;;;;;;;0.70;0.30;;;11.90;99.90;;;;;;5053959;28;20530;-76
2022/10/01 10:00:39;;;;;;;0.40;0.20;;;11.90;99.90;;;;;;5052268;28;20530;-77
2022/10/01 10:03:06;;;;;;;0.33;0.20;;;11.90;99.90;;;;;;5055226;28;20448;-76
2022/10/01 10:05:41;;;;;;;0.37;0.20;;;12.00;99.90;;;;;;5050321;28;20451;-76
2022/10/01 10:08:14;;;;;;;0.50;0.23;;;12.00;99.90;;;;;;5056015;28;20455;-77
2022/10/01 10:10:51;;;;;;;0.40;0.20;;;12.30;99.90;;;;;;5055125;28;20467;-74
2022/10/01 10:13:25;;;;;;;0.30;0.10;;;12.20;99.90;;;;;;5053382;28;21088;-75
2022/10/01 10:15:57;;;;;;;0.43;0.20;;;12.20;99.90;;;;;;5056159;28;20949;-74
2022/10/01 10:18:28;;;;;;;0.43;0.23;;;12.20;99.90;;;;;;5053446;28;20467;-75
2022/10/01 10:20:59;;;;;;;0.30;0.20;;;12.10;99.90;;;;;;5057238;28;20538;-75
2022/10/01 10:23:28;;;;;;;0.80;0.50;;;12.10;99.90;;;;;;5052834;28;20918;-78
2022/10/01 10:25:59;;;;;;;1.03;0.40;;;12.10;99.90;;;;;;5059983;28;20847;-77
2022/10/01 10:28:28;;;;;;;0.37;0.20;;;12.20;99.90;;;;;;5046616;28;20452;-79
2022/10/01 10:30:57;;;;;;;0.67;0.20;;;12.30;99.90;;;;;;5048979;28;20516;-79
2022/10/01 10:33:27;;;;;;;0.50;0.20;;;12.30;99.90;;;;;;5048400;28;20535;-78
2022/10/01 10:36:00;;;;;;;0.30;0.20;;;12.30;99.90;;;;;;5044265;28;20531;-77
2022/10/01 10:38:31;;;;;;;0.40;0.20;;;12.30;99.90;;;;;;5058015;28;20499;-76
2022/10/01 10:40:57;;;;;;;0.30;0.10;;;12.30;99.90;;;;;;5061469;28;20503;-77
2022/10/01 10:43:28;;;;;;;0.30;0.10;;;12.30;99.90;;;;;;5056969;28;20788;-77
2022/10/01 10:45:57;;;;;;;0.40;0.20;;;12.30;99.90;;;;;;5060896;28;20451;-76
2022/10/01 10:48:27;;;;;;;0.30;0.17;;;12.40;99.90;;;;;;5049798;28;20455;-75
2022/10/01 10:51:00;;;;;;;2.70;0.20;;;12.40;99.90;;;;;;5060230;28;20454;-76
2022/10/01 10:53:30;;;;;;;0.30;0.10;;;12.50;99.90;;;;;;5053493;28;20441;-75
2022/10/01 10:56:00;;;;;;;0.50;0.20;;;12.60;99.90;;;;;;5056970;28;20436;-74
2022/10/01 10:58:28;;;;;;;0.30;0.17;;;12.50;99.90;;;;;;5057053;28;20500;-75
2022/10/01 11:00:59;;;;;;;0.37;0.10;;;12.50;99.90;;;;;;5057088;28;20454;-74
2022/10/01 11:03:28;;;;;;;0.30;0.10;;;12.70;99.90;;;;;;5045966;28;20943;-74
2022/10/01 11:06:00;;;;;;;0.70;0.20;;;12.90;99.90;;;;;;5056756;28;20550;-74
2022/10/01 11:08:28;;;;;;;0.30;0.17;;;13.00;99.90;;;;;;5055536;28;20534;-74
2022/10/01 11:11:06;;;;;;;0.50;0.20;;;13.30;99.90;;;;;;5057518;28;20832;-73
2022/10/01 11:14:02;;;;;;;0.40;0.10;;;13.30;99.90;;;;;;5053785;28;20453;-75
2022/10/01 11:16:42;;;;;;;0.60;0.20;;;13.20;99.90;;;;;;5056856;28;20464;-74
2022/10/01 11:19:33;;;;;;;0.40;0.20;;;13.10;99.90;;;;;;5038434;28;20918;-75
2022/10/01 11:22:12;;;;;;;0.30;0.10;;;13.20;99.90;;;;;;5054190;28;20447;-76
2022/10/01 11:25:02;;;;;;;0.40;0.20;;;13.30;99.90;;;;;;5057551;28;20544;-75
2022/10/01 11:27:41;;;;;;;0.30;0.20;;;13.30;99.90;;;;;;5058980;28;20455;-75
2022/10/01 11:30:13;;;;;;;0.53;0.20;;;13.40;99.90;;;;;;5055797;28;20950;-75
2022/10/01 11:32:45;;;;;;;0.40;0.20;;;13.40;99.90;;;;;;5058376;28;20447;-74
2022/10/01 11:35:33;;;;;;;0.30;0.17;;;13.30;99.90;;;;;;5040568;28;20464;-74
2022/10/01 11:38:19;;;;;;;0.30;0.13;;;13.30;99.90;;;;;;5058714;28;20454;-74
2022/10/01 11:40:51;;;;;;;0.40;0.20;;;13.30;99.90;;;;;;5057495;28;20942;-75
2022/10/01 11:43:22;;;;;;;0.57;0.20;;;13.30;99.90;;;;;;5055384;28;20471;-74
2022/10/01 11:45:55;;;;;;;0.30;0.10;;;13.20;99.90;;;;;;5056651;28;20427;-75
2022/10/01 11:48:28;;;;;;;0.30;0.20;;;13.20;99.90;;;;;;5054836;28;20474;-74
2022/10/01 11:51:01;;;;;;;0.50;0.20;;;13.20;99.90;;;;;;5058166;28;20490;-73
2022/10/01 11:53:33;;;;;;;0.63;0.20;;;13.40;99.90;;;;;;5056032;28;20451;-74
2022/10/01 11:58:54;;;;;;;0.30;0.20;;;13.40;99.90;;;;;;5034422;28;20427;-74
2022/10/01 12:01:35;;;;;;;0.43;0.30;;;13.30;99.90;;;;;;5038322;28;20479;-74
2022/10/01 12:04:15;;;;;;;0.40;0.20;;;13.30;99.90;;;;;;5032541;28;20496;-74
2022/10/01 12:06:59;;;;;;;0.40;0.13;;;13.40;99.90;;;;;;5046256;28;20478;-74
2022/10/01 12:09:37;;;;;;;0.30;0.20;;;13.30;99.90;;;;;;5052391;28;20463;-74
2022/10/01 12:12:07;;;;;;;0.30;0.10;;;13.30;99.90;;;;;;5055371;28;20723;-75
2022/10/01 12:14:41;;;;;;;0.40;0.10;;;13.30;99.90;;;;;;5053304;28;20451;-74
2022/10/01 12:17:16;;;;;;;0.30;0.10;;;13.40;99.90;;;;;;5057863;28;20458;-74
2022/10/01 12:19:50;;;;;;;0.30;0.20;;;13.30;99.90;;;;;;5055359;28;20464;-75
2022/10/01 12:22:24;;;;;;;0.60;0.20;;;13.30;99.90;;;;;;5059812;28;20470;-74
2022/10/01 12:24:52;;;;;;;1.00;0.50;;;13.20;99.90;;;;;;5053570;28;20796;-75
2022/10/01 12:27:43;;;;;;;0.90;0.20;;;13.30;99.90;;;;;;5058299;28;20478;-75
2022/10/01 12:30:15;;;;;;;0.30;0.10;;;13.50;99.90;;;;;;5048819;28;20465;-75
2022/10/01 12:32:56;;;;;;;0.50;0.27;;;13.60;99.90;;;;;;5057849;28;20755;-76
2022/10/01 12:35:48;;;;;;;2.90;0.20;;;13.80;99.90;;;;;;5052745;28;20513;-75
2022/10/01 12:38:28;;;;;;;0.53;0.10;;;13.90;99.90;;;;;;5056415;28;20498;-75
2022/10/01 12:41:09;;;;;;;0.60;0.20;;;13.90;99.90;;;;;;5036366;28;20462;-74
2022/10/01 12:44:03;;;;;;;0.50;0.20;;;13.90;99.90;;;;;;5047869;28;20528;-74
2022/10/01 12:46:40;;;;;;;0.40;0.10;;;13.70;99.90;;;;;;5055640;28;20479;-75
2022/10/01 12:49:21;;;;;;;0.40;0.10;;;13.80;99.90;;;;;;5055138;28;20455;-76
2022/10/01 12:52:00;;;;;;;0.40;0.20;;;13.90;99.90;;;;;;5059062;28;20469;-75
2022/10/01 12:54:51;;;;;;;0.57;0.33;;;13.90;99.90;;;;;;5054257;28;20455;-74
2022/10/01 12:57:38;;;;;;;0.40;0.20;;;14.00;99.90;;;;;;5045847;28;20443;-74
2022/10/01 13:00:11;;;;;;;0.40;0.10;;;14.00;99.90;;;;;;5054302;28;20894;-74
2022/10/01 13:02:57;;;;;;;0.40;0.17;;;14.00;99.90;;;;;;5054249;28;20471;-73
2022/10/01 13:05:33;;;;;;;0.40;0.20;;;13.90;99.90;;;;;;5055381;28;20490;-74
2022/10/01 13:08:16;;;;;;;1.83;0.20;;;13.90;99.90;;;;;;5034293;28;20487;-75
2022/10/01 13:11:02;;;;;;;0.30;0.10;;;13.80;99.90;;;;;;5040213;28;20444;-75
2022/10/01 13:13:40;;;;;;;0.30;0.13;;;13.80;99.90;;;;;;5052904;28;20459;-73
2022/10/01 13:16:16;;;;;;;0.43;0.20;;;14.00;99.90;;;;;;5056562;28;20896;-74